Nearby METAR Reports

 

KTEB - Teterboro, New Jersey, USA
Distance from station: ENE 2mi, 4km
Updated: 11/14/2019 9:51pm
Mostly cloudy
Mostly cloudy
 Wind from WSW
Wind: WSW 6 mph , 9 km/h
Temperature: 41°F , 5°C
Wind Chill: 37°F , 3°C
Dew Point: 28°F , -2°C
Humidity: 61%
Barometer: 30.30 inHg , 1026.1 hPa
Clouds: Mostly cloudy
Visibility: 10 miles , 16 km
Cloud details: Mostly cloudy 12000 ft
2019/11/15 02:51 KTEB 150251Z 24005KT 10SM BKN120 05/M02 A3030 RMK AO2 SLP260 T00501022 53000
KNYC - Nyc/Central Park, New York, USA
Distance from station: SE 8mi, 13km
Updated: 11/14/2019 9:51pm
Clear
Clear
 Wind from varies
Wind: varies 5 mph , 7 km/h
Temperature: 43°F , 6°C
Wind Chill: 40°F , 4°C
Dew Point: 23°F , -5°C
Humidity: 46%
Barometer: 30.32 inHg , 1026.8 hPa
Clouds: Clear
Visibility: 10 miles , 16 km
2019/11/15 02:51 KNYC 150251Z AUTO VRB04KT 10SM CLR 06/M05 A3032 RMK AO2 SLP260 T00561050 55001 $
 
KCDW - Caldwell, New Jersey, USA
Distance from station: WNW 10mi, 17km
Updated: 11/14/2019 9:53pm
Mostly cloudy
Mostly cloudy
 Wind from calm
Wind: Calm
Temperature: 37°F , 3°C
Dew Point: 23°F , -5°C
Humidity: 56%
Barometer: 30.31 inHg , 1026.4 hPa
Clouds: Mostly cloudy
Visibility: 10 miles , 16 km
Cloud details: Mostly cloudy 12000 ft
2019/11/15 02:53 KCDW 150253Z 00000KT 10SM BKN120 03/M05 A3031 RMK AO2 SLP271 T00331050 55000
KLGA - Nyc/La Guardia, New York, USA
Distance from station: ESE 12mi, 19km
Updated: 11/14/2019 9:51pm
Mostly cloudy
Mostly cloudy
 Wind from WSW
Wind: WSW 10 mph , 17 km/h
Temperature: 43°F , 6°C
Wind Chill: 37°F , 3°C
Dew Point: 21°F , -6°C
Humidity: 42%
Barometer: 30.30 inHg , 1026.1 hPa
Clouds: Mostly cloudy
Visibility: 10 miles , 16 km
Cloud details: Few Clouds 12000 ft
Mostly cloudy 14000 ft
Mostly cloudy 25000 ft
2019/11/15 02:51 KLGA 150251Z 24009KT 10SM FEW120 BKN140 BKN250 06/M06 A3030 RMK AO2 SLP261 T00611056 55002 $
 
KEWR - Newark, New Jersey, USA
Distance from station: SSW 12mi, 20km
Updated: 11/14/2019 9:51pm
Mostly cloudy
Mostly cloudy
 Wind from WSW
Wind: WSW 10 mph , 17 km/h
Temperature: 41°F , 5°C
Wind Chill: 35°F , 2°C
Dew Point: 25°F , -4°C
Humidity: 53%
Barometer: 30.31 inHg , 1026.4 hPa
Clouds: Mostly cloudy
Visibility: 10 miles , 16 km
Cloud details: Few Clouds 12000 ft
Mostly cloudy 14000 ft
Mostly cloudy 25000 ft
2019/11/15 02:51 KEWR 150251Z 24009KT 10SM FEW120 BKN140 BKN250 05/M04 A3031 RMK AO2 SLP262 T00501044 56000 $
KMMU - Morristown Muni, New Jersey, USA
Distance from station: WSW 18mi, 29km
Updated: 11/14/2019 10:15pm
Mostly cloudy
Mostly cloudy
 Wind from calm
Wind: Calm
Temperature: 34°F , 1°C
Dew Point: 25°F , -4°C
Humidity: 70%
Barometer: 30.30 inHg , 1026.1 hPa
Clouds: Mostly cloudy
Visibility: 10 miles , 16 km
Cloud details: Mostly cloudy 12000 ft
2019/11/15 03:15 KMMU 150315Z AUTO 00000KT 10SM BKN120 01/M04 A3030 RMK AO2
 
KJFK - Nyc/Jfk Arpt, New York, USA
Distance from station: SE 23mi, 36km
Updated: 11/14/2019 9:51pm
Mostly cloudy
Mostly cloudy
 Wind from WSW
Wind: WSW 15 mph , 24 km/h
Temperature: 43°F , 6°C
Wind Chill: 36°F , 2°C
Dew Point: 30°F , -1°C
Humidity: 61%
Barometer: 30.32 inHg , 1026.8 hPa
Clouds: Mostly cloudy
Visibility: 10 miles , 16 km
Cloud details: Mostly cloudy 14000 ft
Mostly cloudy 25000 ft
2019/11/15 02:51 KJFK 150251Z 25013KT 10SM BKN140 BKN250 06/M01 A3032 RMK AO2 SLP267 T00561011 55001
KHPN - White Plains, New York, USA
Distance from station: NE 25mi, 40km
Updated: 11/14/2019 9:56pm
Mostly cloudy
Mostly cloudy
 Wind from W
Wind: W 3 mph , 6 km/h
Temperature: 39°F , 4°C
Dew Point: 23°F , -5°C
Humidity: 52%
Barometer: 30.28 inHg , 1025.4 hPa
Clouds: Mostly cloudy
Visibility: 10 miles , 16 km
Cloud details: Mostly cloudy 12000 ft
2019/11/15 02:56 KHPN 150256Z 28003KT 10SM BKN120 04/M05 A3028 RMK AO2 SLP259 T00391050 55003
 
KSMQ - Somerville, New Jersey, USA
Distance from station: WSW 34mi, 55km
Updated: 11/14/2019 9:53pm
Mostly cloudy
Mostly cloudy
 Wind from calm
Wind: Calm
Temperature: 32°F , 0°C
Dew Point: 25°F , -4°C
Humidity: 75%
Barometer: 30.29 inHg , 1025.7 hPa
Clouds: Mostly cloudy
Visibility: 10 miles , 16 km
Cloud details: Mostly cloudy 12000 ft
2019/11/15 02:53 KSMQ 150253Z AUTO 00000KT 10SM BKN120 00/M04 A3029 RMK AO2 SLP261 T00001044 56002 $
K12N - Andover, New Jersey, USA
Distance from station: WNW 36mi, 57km
Updated: 11/14/2019 9:54pm

 Wind from calm
Wind: Calm
Temperature: 30°F , -1°C
Dew Point: 21°F , -6°C
Humidity: 69%
Barometer: 30.28 inHg , 1025.4 hPa
2019/11/15 02:54 K12N 150254Z AUTO 00000KT M01/M06 A3028 RMK AO1 SLP267 T10061056 56001
 
KFRG - Farmingdale, New York, USA
Distance from station: ESE 36mi, 58km
Updated: 11/14/2019 9:53pm
Clear
Clear
 Wind from WSW
Wind: WSW 7 mph , 11 km/h
Temperature: 41°F , 5°C
Wind Chill: 36°F , 2°C
Dew Point: 27°F , -3°C
Humidity: 57%
Barometer: 30.30 inHg , 1026.1 hPa
Clouds: Clear
Visibility: 10 miles , 16 km
2019/11/15 02:53 KFRG 150253Z 25006KT 10SM CLR 05/M03 A3030 RMK AO2 SLP262 T00501028 55003
KFWN - Sussex, New Jersey, USA
Distance from station: NW 37mi, 60km
Updated: 11/14/2019 9:53pm
Clear
Clear
 Wind from calm
Wind: Calm
Temperature: 27°F , -3°C
Dew Point: 21°F , -6°C
Humidity: 80%
Barometer: 30.28 inHg , 1025.4 hPa
Clouds: Clear
Visibility: 10 miles , 16 km
2019/11/15 02:53 KFWN 150253Z AUTO 00000KT 10SM CLR M03/M06 A3028 RMK AO2 SLP258 60000 T10281061 56002
 
KSWF - Newburgh/Stewart, New York, USA
Distance from station: 0 45mi, 72km
Updated: 11/14/2019 9:45pm
Mostly cloudy
Mostly cloudy
 Wind from calm
Wind: Calm
Temperature: 30°F , -1°C
Dew Point: 23°F , -5°C
Humidity: 75%
Barometer: 30.28 inHg , 1025.4 hPa
Clouds: Mostly cloudy
Visibility: 10 miles , 16 km
Cloud details: Mostly cloudy 12000 ft
2019/11/15 02:45 KSWF 150245Z 00000KT 10SM BKN120 M01/M05 A3028
KMGJ - Montgomery, New York, USA
Distance from station: NNW 47mi, 75km
Updated: 11/14/2019 9:54pm
Clear
Clear
 Wind from calm
Wind: Calm
Temperature: 27°F , -3°C
Dew Point: 21°F , -6°C
Humidity: 80%
Barometer: 30.27 inHg , 1025.1 hPa
Clouds: Clear
Visibility: 10 miles , 16 km
2019/11/15 02:54 KMGJ 150254Z AUTO 00000KT 10SM CLR M03/M06 A3027 RMK AO2 SLP256 T10331056 56001
 
KBLM - Belmar/Farmdale, New Jersey, USA
Distance from station: S 47mi, 76km
Updated: 11/14/2019 9:56pm
Clear
Clear
 Wind from SSW
Wind: SSW 3 mph , 6 km/h
Temperature: 36°F , 2°C
Dew Point: 28°F , -2°C
Humidity: 75%
Barometer: 30.32 inHg , 1026.8 hPa
Clouds: Clear
Visibility: 10 miles , 16 km
2019/11/15 02:56 KBLM 150256Z AUTO 21003KT 10SM CLR 02/M02 A3032 RMK AO2 SLP270 T00221022 53001 FZRANO
KDXR - Danbury, Connecticut, USA
Distance from station: NE 47mi, 76km
Updated: 11/14/2019 9:53pm
Few Clouds
Few Clouds
 Wind from calm
Wind: Calm
Temperature: 32°F , 0°C
Dew Point: 25°F , -4°C
Humidity: 75%
Barometer: 30.29 inHg , 1025.7 hPa
Clouds: Few Clouds
Visibility: 10 miles , 16 km
Cloud details: Few Clouds 12000 ft
2019/11/15 02:53 KDXR 150253Z AUTO 00000KT 10SM FEW120 00/M04 A3029 RMK AO2 SLP261 T00001039 55005
 
KISP - Islip, New York, USA
Distance from station: E 52mi, 83km
Updated: 11/14/2019 9:56pm
Mostly cloudy
Mostly cloudy
 Wind from WSW
Wind: WSW 6 mph , 9 km/h
Temperature: 39°F , 4°C
Wind Chill: 35°F , 2°C
Dew Point: 28°F , -2°C
Humidity: 65%
Barometer: 30.30 inHg , 1026.1 hPa
Clouds: Mostly cloudy
Visibility: 10 miles , 16 km
Cloud details: Partly cloudy 15000 ft
Mostly cloudy 25000 ft
2019/11/15 02:56 KISP 150256Z 25005KT 10SM SCT150 BKN250 04/M02 A3030 RMK AO2 SLP260 T00441017 55004
KBDR - Bridgeport, Connecticut, USA
Distance from station: ENE 54mi, 87km
Updated: 11/14/2019 9:52pm
Clear
Clear
 Wind from WNW
Wind: WNW 5 mph , 7 km/h
Temperature: 39°F , 4°C
Wind Chill: 35°F , 2°C
Dew Point: 27°F , -3°C
Humidity: 61%
Barometer: 30.29 inHg , 1025.7 hPa
Clouds: Clear
Visibility: 10 miles , 16 km
2019/11/15 02:52 KBDR 150252Z 30004KT 10SM CLR 04/M03 A3029 RMK AO2 SLP257 T00441033 56004
 
KTTN - Trenton, New Jersey, USA
Distance from station: SW 55mi, 88km
Updated: 11/14/2019 9:53pm
Clear
Clear
 Wind from W
Wind: W 3 mph , 6 km/h
Temperature: 37°F , 3°C
Dew Point: 25°F , -4°C
Humidity: 60%
Barometer: 30.31 inHg , 1026.4 hPa
Clouds: Clear
Visibility: 10 miles , 16 km
2019/11/15 02:53 KTTN 150253Z 27003KT 10SM CLR 03/M04 A3031 RMK AO2 SLP259 T00281039 58001
KPOU - Poughkeepsie, New York, USA
Distance from station: N 55mi, 89km
Updated: 11/14/2019 9:53pm
Clear
Clear
 Wind from calm
Wind: Calm
Temperature: 28°F , -2°C
Dew Point: 21°F , -6°C
Humidity: 74%
Barometer: 30.29 inHg , 1025.7 hPa
Clouds: Clear
Visibility: 10 miles , 16 km
2019/11/15 02:53 KPOU 150253Z AUTO 00000KT 10SM CLR M02/M06 A3029 RMK AO2 SLP255 T10171056 56002
 
KNEL - Lakehurst Nas, New Jersey, USA
Distance from station: SSW 59mi, 95km
Updated: 11/14/2019 10:00pm
Clear
Clear
 Wind from calm
Wind: Calm
Temperature: 28°F , -2°C
Dew Point: 27°F , -3°C
Humidity: 93%
Barometer: 30.32 inHg , 1026.8 hPa
Clouds: Clear
Visibility: 10 miles , 16 km
2019/11/15 03:00 KNEL 150300Z AUTO 00000KT 10SM CLR M02/M03 A3032 RMK AO2 SLP266 T10171028 55002 FZRANO $
KWRI - Wrightst/Mcguire, New Jersey, USA
Distance from station: SSW 63mi, 102km
Updated: 11/14/2019 9:56pm
Overcast
Overcast
 Wind from calm
Wind: Calm
Temperature: 32°F , 0°C
Dew Point: 27°F , -3°C
Humidity: 80%
Barometer: 30.31 inHg , 1026.4 hPa
Clouds: Overcast
Visibility: 10 miles , 16 km
Cloud details: Overcast 13000 ft
2019/11/15 02:56 KWRI 150256Z AUTO 00000KT 10SM OVC130 00/M03 A3031 RMK AO2 SLP265 T10051026 50001
 
KHWV - Shirley, New York, USA
Distance from station: E 64mi, 103km
Updated: 11/14/2019 9:56pm
Clear
Clear
 Wind from W
Wind: W 7 mph , 11 km/h
Temperature: 43°F , 6°C
Wind Chill: 39°F , 4°C
Dew Point: 34°F , 1°C
Humidity: 71%
Barometer: 30.30 inHg , 1026.1 hPa
Clouds: Clear
Visibility: 10 miles , 16 km
2019/11/15 02:56 KHWV 150256Z AUTO 28006KT 10SM CLR 06/01 A3030 RMK AO2 SLP262 T00560006 55004
KMJX - Toms River, New Jersey, USA
Distance from station: S 64mi, 104km
Updated: 11/14/2019 9:56pm
Few Clouds
Few Clouds
 Wind from calm
Wind: Calm
Temperature: 27°F , -3°C
Dew Point: 27°F , -3°C
Humidity: 100%
Barometer: 30.33 inHg , 1027.1 hPa
Clouds: Few Clouds
Visibility: 10 miles , 16 km
Cloud details: Few Clouds 5000 ft
2019/11/15 02:56 KMJX 150256Z AUTO 00000KT 10SM FEW050 M03/M03 A3033 RMK AO2 SLP274 T10281028 56001 FZRANO
 
KDYL - Doylestown, Pennsylvania, USA
Distance from station: SW 65mi, 104km
Updated: 11/14/2019 9:54pm
Few Clouds
Few Clouds
 Wind from WSW
Wind: WSW 3 mph , 6 km/h
Temperature: 37°F , 3°C
Dew Point: 25°F , -4°C
Humidity: 60%
Barometer: 30.30 inHg , 1026.1 hPa
Clouds: Few Clouds
Visibility: 10 miles , 16 km
Cloud details: Few Clouds 11000 ft
2019/11/15 02:54 KDYL 150254Z AUTO 24003KT 10SM FEW110 03/M04 A3030 RMK AO2 SLP267 T00331044 53001
KOXC - Oxford/Waterbury, Connecticut, USA
Distance from station: NE 65mi, 105km
Updated: 11/14/2019 9:51pm
Mostly cloudy
Mostly cloudy
 Wind from WSW
Wind: WSW 3 mph , 6 km/h
Temperature: 36°F , 2°C
Dew Point: 25°F , -4°C
Humidity: 65%
Barometer: 30.27 inHg , 1025.1 hPa
Clouds: Mostly cloudy
Visibility: 10 miles , 16 km
Cloud details: Mostly cloudy 11000 ft
2019/11/15 02:51 KOXC 150251Z AUTO 25003KT 10SM BKN110 02/M04 A3027 RMK AO2 SLP271 T00171039 55006 FZRANO
 
KMSV - Monticello, New York, USA
Distance from station: NNW 69mi, 111km
Updated: 11/14/2019 9:56pm
Overcast
Overcast
 Wind from NNW
Wind: NNW 3 mph , 6 km/h
Temperature: 28°F , -2°C
Dew Point: 21°F , -6°C
Humidity: 74%
Barometer: 30.24 inHg , 1024 hPa
Clouds: Overcast
Visibility: 10 miles , 16 km
Cloud details: Overcast 9500 ft
2019/11/15 02:56 KMSV 150256Z AUTO 34003KT 10SM OVC095 M02/M06 A3024 RMK AO2 SLP260 T10221061 56002 FZRANO
KHVN - New Haven/Tweed, Connecticut, USA
Distance from station: ENE 70mi, 112km
Updated: 11/14/2019 9:53pm
Clear
Clear
 Wind from calm
Wind: Calm
Temperature: 46°F , 8°C
Dew Point: 30°F , -1°C
Humidity: 53%
Barometer: 30.29 inHg , 1025.7 hPa
Clouds: Clear
Visibility: 10 miles , 16 km
2019/11/15 02:53 KHVN 150253Z 00000KT 10SM CLR 08/M01 A3029 RMK AO2 SLP255 T00781011 56005
 
KMPO - Mt. Pocono, Pennsylvania, USA
Distance from station: WNW 70mi, 113km
Updated: 11/14/2019 9:53pm
Mostly cloudy
Mostly cloudy
 Wind from W
Wind: W 7 mph , 11 km/h
Temperature: 28°F , -2°C
Wind Chill: 21°F , -6°C
Dew Point: 16°F , -9°C
Humidity: 59%
Barometer: 30.21 inHg , 1023 hPa
Clouds: Mostly cloudy
Visibility: 10 miles , 16 km
Cloud details: Mostly cloudy 10000 ft
2019/11/15 02:53 KMPO 150253Z AUTO 26006KT 10SM BKN100 M02/M09 A3021 RMK AO2 SLP255 T10171089 58001 $
KPNE - Philadelphia/Ne, Pennsylvania, USA
Distance from station: SW 72mi, 116km
Updated: 11/14/2019 9:54pm
Clear
Clear
 Wind from calm
Wind: Calm
Temperature: 37°F , 3°C
Dew Point: 27°F , -3°C
Humidity: 65%
Barometer: 30.34 inHg , 1027.4 hPa
Clouds: Clear
Visibility: 10 miles , 16 km
2019/11/15 02:54 KPNE 150254Z 00000KT 10SM CLR 03/M03 A3034 RMK AO2 SLP273 T00281028 51002
 
KABE - Allentown, Pennsylvania, USA
Distance from station: W 73mi, 117km
Updated: 11/14/2019 9:51pm
Clear
Clear
 Wind from W
Wind: W 3 mph , 6 km/h
Temperature: 36°F , 2°C
Dew Point: 21°F , -6°C
Humidity: 56%
Barometer: 30.30 inHg , 1026.1 hPa
Clouds: Clear
Visibility: 10 miles , 16 km
2019/11/15 02:51 KABE 150251Z 26003KT 10SM CLR 02/M06 A3030 RMK AO2 SLP264 T00171061 53001
KUKT - Quakertown Arp, Pennsylvania, USA
Distance from station: WSW 74mi, 119km
Updated: 11/14/2019 10:20pm
Clear
Clear
 Wind from calm
Wind: Calm
Temperature: 30°F , -1°C
Dew Point: 25°F , -4°C
Humidity: 80%
Barometer: 30.30 inHg , 1026.1 hPa
Clouds: Clear
Visibility: 10 miles , 16 km
2019/11/15 03:20 KUKT 150320Z AUTO 00000KT 10SM CLR M01/M04 A3030 RMK A01
 
KVAY - Mount Holly, New Jersey, USA
Distance from station: SSW 75mi, 120km
Updated: 11/14/2019 9:54pm
Clear
Clear
 Wind from calm
Wind: Calm
Temperature: 34°F , 1°C
Dew Point: 27°F , -3°C
Humidity: 75%
Barometer: 30.32 inHg , 1026.8 hPa
Clouds: Clear
Visibility: 10 miles , 16 km
2019/11/15 02:54 KVAY 150254Z AUTO 00000KT 10SM CLR 01/M03 A3032 RMK AO2 SLP269 T00061028 50000
KXLL - Allentown Queen, Pennsylvania, USA
Distance from station: WSW 76mi, 122km
Updated: 11/14/2019 10:15pm
Clear
Clear
 Wind from calm
Wind: Calm
Temperature: 34°F , 1°C
Dew Point: 27°F , -3°C
Humidity: 75%
Barometer: 30.31 inHg , 1026.4 hPa
Clouds: Clear
Visibility: 10 miles , 16 km
2019/11/15 03:15 KXLL 150315Z AUTO 00000KT 10SM CLR 01/M03 A3031 RMK AO2
 
KFOK - Westhampton Beac, New York, USA
Distance from station: E 77mi, 124km
Updated: 11/14/2019 9:53pm
Few Clouds
Few Clouds
 Wind from W
Wind: W 5 mph , 7 km/h
Temperature: 39°F , 4°C
Wind Chill: 35°F , 2°C
Dew Point: 36°F , 2°C
Humidity: 87%
Barometer: 30.30 inHg , 1026.1 hPa
Clouds: Few Clouds
Visibility: 10 miles , 16 km
Cloud details: Few Clouds 2900 ft
2019/11/15 02:53 KFOK 150253Z 28004KT 10SM FEW029 04/02 A3030 RMK AO2 SLP261 T00440017 55008
KLOM - Philly Wings F, Pennsylvania, USA
Distance from station: SW 79mi, 128km
Updated: 11/14/2019 10:15pm
Clear
Clear
 Wind from calm
Wind: Calm
Temperature: 32°F , 0°C
Dew Point: 27°F , -3°C
Humidity: 80%
Barometer: 30.33 inHg , 1027.1 hPa
Clouds: Clear
Visibility: 10 miles , 16 km
2019/11/15 03:15 KLOM 150315Z AUTO 00000KT 10SM CLR 00/M03 A3033 RMK AO2 T10011026
 
KMMK - Meriden, Connecticut, USA
Distance from station: NE 80mi, 128km
Updated: 11/14/2019 9:53pm
Few Clouds
Few Clouds
 Wind from calm
Wind: Calm
Temperature: 30°F , -1°C
Dew Point: 28°F , -2°C
Humidity: 93%
Barometer: 30.29 inHg , 1025.7 hPa
Clouds: Few Clouds
Visibility: 10 miles , 16 km
Cloud details: Few Clouds 12000 ft
2019/11/15 02:53 KMMK 150253Z AUTO 00000KT 10SM FEW120 M01/M02 A3029 RMK AO2 SLP258 T10061022 55005 $
KPTW - Pottstown, Pennsylvania, USA
Distance from station: WSW 88mi, 141km
Updated: 11/14/2019 9:54pm
Clear
Clear
 Wind from calm
Wind: Calm
Temperature: 30°F , -1°C
Dew Point: 25°F , -4°C
Humidity: 80%
Barometer: 30.33 inHg , 1027.1 hPa
Clouds: Clear
Visibility: 10 miles , 16 km
2019/11/15 02:54 KPTW 150254Z AUTO 00000KT 10SM CLR M01/M04 A3033 RMK AO2 SLP271 T10061044 53002
 
KSNC - Chester, Connecticut, USA
Distance from station: ENE 90mi, 146km
Updated: 11/14/2019 10:15pm
Clear
Clear
 Wind from calm
Wind: Calm
Temperature: 41°F , 5°C
Dew Point: 34°F , 1°C
Humidity: 76%
Barometer: 30.27 inHg , 1025.1 hPa
Clouds: Clear
Visibility: 10 miles , 16 km
2019/11/15 03:15 KSNC 150315Z AUTO 00000KT 10SM CLR 05/01 A3027 RMK AO2
KPHL - Philadelphia, Pennsylvania, USA
Distance from station: SW 91mi, 146km
Updated: 11/14/2019 9:54pm
Mostly cloudy
Mostly cloudy
 Wind from SSW
Wind: SSW 6 mph , 9 km/h
Temperature: 39°F , 4°C
Wind Chill: 35°F , 2°C
Dew Point: 28°F , -2°C
Humidity: 65%
Barometer: 30.33 inHg , 1027.1 hPa
Clouds: Mostly cloudy
Visibility: 10 miles , 16 km
Cloud details: Mostly cloudy 13000 ft
Mostly cloudy 25000 ft
2019/11/15 02:54 KPHL 150254Z 20005KT 10SM BKN130 BKN250 04/M02 A3033 RMK AO2 SLP271 T00391017 52002 $
 
KAVP - Avoca/Wilkes B., Pennsylvania, USA
Distance from station: WNW 91mi, 147km
Updated: 11/14/2019 9:54pm
Clear
Clear
 Wind from calm
Wind: Calm
Temperature: 34°F , 1°C
Dew Point: 18°F , -8°C
Humidity: 51%
Barometer: 30.25 inHg , 1024.4 hPa
Clouds: Clear
Visibility: 10 miles , 16 km
2019/11/15 02:54 KAVP 150254Z 00000KT 10SM CLR 01/M08 A3025 RMK AO2 SLP253 T00111078 53001 $
KHFD - Hartford/Brainar, Connecticut, USA
Distance from station: NE 96mi, 155km
Updated: 11/14/2019 9:53pm
Clear
Clear
 Wind from calm
Wind: Calm
Temperature: 34°F , 1°C
Dew Point: 25°F , -4°C
Humidity: 70%
Barometer: 30.29 inHg , 1025.7 hPa
Clouds: Clear
Visibility: 10 miles , 16 km
2019/11/15 02:53 KHFD 150253Z 00000KT 10SM CLR 01/M04 A3029 RMK AO2 SLP256 T00061039 56007
 
KHTO - East Hampton, New York, USA
Distance from station: E 96mi, 155km
Updated: 11/14/2019 10:15pm
Partly cloudy
Partly cloudy
 Wind from WNW
Wind: WNW 5 mph , 7 km/h
Temperature: 41°F , 5°C
Wind Chill: 38°F , 3°C
Dew Point: 36°F , 2°C
Humidity: 81%
Barometer: 30.28 inHg , 1025.4 hPa
Clouds: Partly cloudy
Visibility: 10 miles , 16 km
Cloud details: Partly cloudy 5000 ft
2019/11/15 03:15 KHTO 150315Z AUTO 29004KT 10SM SCT050 05/02 A3028 RMK AO2 T00490023
KACY - Atlantic City, New Jersey, USA
Distance from station: SSW 99mi, 160km
Updated: 11/14/2019 9:54pm
Overcast
Overcast
 Wind from calm
Wind: Calm
Temperature: 39°F , 4°C
Dew Point: 34°F , 1°C
Humidity: 81%
Barometer: 30.32 inHg , 1026.8 hPa
Clouds: Overcast
Visibility: 10 miles , 16 km
Cloud details: Mostly cloudy 4100 ft
Overcast 5500 ft
2019/11/15 02:54 KACY 150254Z 00000KT 10SM BKN041 OVC055 04/01 A3032 RMK AO2 SLP269 T00440006 55003